createdAt,value
2018-12-13T00:01:14.528Z,76.46
2018-12-13T00:03:25.384Z,75.83
2018-12-13T00:05:36.261Z,75.48
2018-12-13T00:07:47.115Z,76.40
2018-12-13T00:09:57.981Z,76.52
2018-12-13T00:12:08.933Z,75.88
2018-12-13T00:14:19.776Z,76.06
2018-12-13T00:16:30.679Z,76.53
2018-12-13T00:18:41.565Z,75.95
2018-12-13T00:20:52.417Z,75.83
2018-12-13T00:23:03.281Z,76.39
2018-12-13T00:25:14.148Z,75.97
2018-12-13T00:27:25.030Z,76.10
2018-12-13T00:29:35.912Z,76.25
2018-12-13T00:31:46.758Z,77.31
2018-12-13T00:33:57.585Z,77.00
2018-12-13T00:36:08.448Z,77.95
2018-12-13T00:38:20.152Z,77.63
2018-12-13T00:40:30.990Z,78.52
2018-12-13T00:42:41.883Z,77.94
2018-12-13T00:44:52.740Z,78.74
2018-12-13T00:47:03.693Z,78.91
2018-12-13T00:49:14.582Z,78.84
2018-12-13T00:51:25.413Z,78.91
2018-12-13T00:53:36.405Z,78.74
2018-12-13T00:55:47.257Z,78.84
2018-12-13T00:57:58.135Z,78.06
2018-12-13T01:00:09.053Z,78.11
2018-12-13T01:02:19.880Z,78.15
2018-12-13T01:04:30.749Z,79.17
2018-12-13T01:06:46.015Z,78.48
2018-12-13T01:08:54.594Z,79.11
2018-12-13T01:11:05.501Z,79.11
2018-12-13T01:13:16.360Z,79.26
2018-12-13T01:15:29.285Z,80.16
2018-12-13T01:17:40.137Z,79.92
2018-12-13T01:19:51.050Z,79.74
2018-12-13T01:22:01.924Z,79.61
2018-12-13T01:24:12.786Z,79.35
2018-12-13T01:26:23.681Z,79.72
2018-12-13T01:28:35.492Z,80.05
2018-12-13T01:30:46.386Z,79.75
2018-12-13T01:32:58.047Z,79.41
2018-12-13T01:35:08.939Z,79.82
2018-12-13T01:37:19.763Z,79.84
2018-12-13T01:39:30.597Z,80.18
2018-12-13T01:41:41.453Z,79.22
2018-12-13T01:43:52.341Z,80.26
2018-12-13T01:46:03.350Z,79.66
2018-12-13T01:48:14.193Z,80.05
2018-12-13T01:50:25.058Z,80.44
2018-12-13T01:52:35.905Z,79.76
2018-12-13T01:54:46.742Z,79.99
2018-12-13T01:56:57.635Z,80.10
2018-12-13T01:59:08.495Z,80.12
2018-12-13T02:01:19.353Z,79.57
2018-12-13T02:03:30.207Z,79.88
2018-12-13T02:05:41.143Z,79.68
2018-12-13T02:07:52.009Z,78.96
2018-12-13T02:10:03.366Z,78.98
2018-12-13T02:12:14.348Z,78.63
2018-12-13T02:14:25.474Z,78.47
2018-12-13T02:16:36.498Z,79.03
2018-12-13T02:18:47.400Z,78.86
2018-12-13T02:20:59.079Z,79.57
2018-12-13T02:23:09.997Z,79.07
2018-12-13T02:25:20.920Z,78.83
2018-12-13T02:27:31.767Z,79.13
2018-12-13T02:29:42.718Z,78.23
2018-12-13T02:31:53.737Z,78.61
2018-12-13T02:34:04.604Z,78.82
2018-12-13T02:36:15.481Z,79.42
2018-12-13T02:38:26.397Z,79.78
2018-12-13T02:40:37.225Z,78.88
2018-12-13T02:42:48.125Z,79.95
2018-12-13T02:44:58.942Z,79.95
2018-12-13T02:47:09.769Z,79.68
2018-12-13T02:49:20.625Z,80.18
2018-12-13T02:51:31.466Z,80.09
2018-12-13T02:53:42.328Z,79.97
2018-12-13T02:55:54.169Z,80.02
2018-12-13T02:58:05.021Z,80.31
2018-12-13T03:00:15.889Z,80.06
2018-12-13T03:02:26.717Z,79.68
2018-12-13T03:04:37.561Z,80.33
2018-12-13T03:06:48.397Z,80.30
2018-12-13T03:08:59.261Z,79.17
2018-12-13T03:11:10.073Z,79.46
2018-12-13T03:13:20.964Z,79.53
2018-12-13T03:15:31.827Z,79.60
2018-12-13T03:17:42.667Z,80.38
2018-12-13T03:19:53.522Z,80.49
2018-12-13T03:22:04.352Z,79.91
2018-12-13T03:24:15.180Z,80.36
2018-12-13T03:26:26.037Z,80.41
2018-12-13T03:28:36.898Z,79.56
2018-12-13T03:30:47.892Z,79.31
2018-12-13T03:32:58.826Z,79.85
2018-12-13T03:35:09.670Z,79.14
2018-12-13T03:37:21.060Z,78.47
2018-12-13T03:39:32.128Z,78.84
2018-12-13T03:41:42.965Z,78.61
2018-12-13T03:43:53.915Z,78.21
2018-12-13T03:46:04.804Z,77.95
2018-12-13T03:48:15.702Z,78.67
2018-12-13T03:50:26.585Z,77.63
2018-12-13T03:52:37.559Z,78.21
2018-12-13T03:54:48.392Z,77.46
2018-12-13T03:56:59.358Z,76.59
2018-12-13T03:59:10.189Z,77.24
2018-12-13T04:01:21.052Z,77.33
2018-12-13T04:03:31.885Z,76.75
2018-12-13T04:05:42.915Z,76.42
2018-12-13T04:07:53.842Z,75.86
2018-12-13T04:10:04.808Z,76.61
2018-12-13T04:12:15.891Z,76.64
2018-12-13T04:14:26.706Z,76.52
2018-12-13T04:16:37.543Z,75.61
2018-12-13T04:18:48.376Z,75.65
2018-12-13T04:20:59.225Z,76.89
2018-12-13T04:23:10.129Z,76.05
2018-12-13T04:25:20.988Z,75.98
2018-12-13T04:27:31.806Z,76.00
2018-12-13T04:29:42.671Z,75.76
2018-12-13T04:31:53.509Z,75.11
2018-12-13T04:34:04.358Z,75.60
2018-12-13T04:36:15.218Z,76.65
2018-12-13T04:38:26.121Z,75.27
2018-12-13T04:40:36.975Z,75.80
2018-12-13T04:42:47.846Z,76.12
2018-12-13T04:44:58.713Z,76.52
2018-12-13T04:47:09.567Z,76.05
2018-12-13T04:49:20.524Z,76.12
2018-12-13T04:51:31.437Z,75.91
2018-12-13T04:53:42.310Z,75.83
2018-12-13T04:55:53.161Z,76.62
2018-12-13T04:58:03.986Z,76.32
2018-12-13T05:00:14.864Z,76.33
2018-12-13T05:02:25.706Z,76.53
2018-12-13T05:04:36.560Z,76.10
2018-12-13T05:06:47.965Z,76.63
2018-12-13T05:08:58.908Z,75.86
2018-12-13T05:11:09.760Z,75.79
2018-12-13T05:13:20.634Z,75.85
2018-12-13T05:15:31.467Z,76.55
2018-12-13T05:17:42.328Z,75.64
2018-12-13T05:19:53.181Z,76.08
2018-12-13T05:22:04.103Z,76.15
2018-12-13T05:24:14.931Z,75.59
2018-12-13T05:26:25.822Z,75.83
2018-12-13T05:28:36.662Z,75.64
2018-12-13T05:30:47.533Z,75.56
2018-12-13T05:32:58.401Z,75.59
2018-12-13T05:35:09.312Z,75.79
2018-12-13T05:37:20.159Z,75.88
2018-12-13T05:39:30.999Z,74.79
2018-12-13T05:41:41.853Z,75.46
2018-12-13T05:43:52.935Z,75.12
2018-12-13T05:46:03.821Z,75.30
2018-12-13T05:48:14.698Z,74.66
2018-12-13T05:50:25.707Z,74.72
2018-12-13T05:52:36.580Z,74.25
2018-12-13T05:54:47.428Z,73.77
2018-12-13T05:56:58.277Z,72.34
2018-12-13T05:59:09.097Z,72.86
2018-12-13T06:01:19.935Z,73.06
2018-12-13T06:03:30.901Z,72.98
2018-12-13T06:05:41.800Z,73.31
2018-12-13T06:07:55.009Z,72.80
2018-12-13T06:10:05.585Z,72.86
2018-12-13T06:12:16.462Z,73.31
2018-12-13T06:14:27.346Z,73.52
2018-12-13T06:16:38.218Z,73.53
2018-12-13T06:18:49.060Z,73.35
2018-12-13T06:20:59.914Z,73.59
2018-12-13T06:23:10.806Z,73.48
2018-12-13T06:25:21.772Z,73.15
2018-12-13T06:27:32.640Z,73.25
2018-12-13T06:29:48.836Z,72.52
2018-12-13T06:31:56.375Z,71.72
2018-12-13T06:34:07.238Z,72.87
2018-12-13T06:36:18.108Z,71.79
2018-12-13T06:38:28.980Z,71.88
2018-12-13T06:40:39.816Z,72.57
2018-12-13T06:42:50.689Z,72.45
2018-12-13T06:45:01.564Z,72.33
2018-12-13T06:47:12.509Z,72.83
2018-12-13T06:49:23.389Z,72.63
2018-12-13T06:51:34.260Z,72.28
2018-12-13T06:53:45.129Z,71.75
2018-12-13T06:55:56.030Z,71.75
2018-12-13T06:58:06.959Z,73.06
2018-12-13T07:00:17.895Z,73.10
2018-12-13T07:02:28.812Z,72.12
2018-12-13T07:04:39.671Z,72.76
2018-12-13T07:06:50.563Z,72.35
2018-12-13T07:09:01.502Z,71.32
2018-12-13T07:11:12.396Z,71.63
2018-12-13T07:13:23.256Z,71.80
2018-12-13T07:15:34.128Z,70.98
2018-12-13T07:17:44.969Z,71.39
2018-12-13T07:19:55.869Z,71.30
2018-12-13T07:22:06.866Z,71.52
2018-12-13T07:24:17.850Z,71.20
2018-12-13T07:26:28.781Z,72.26
2018-12-13T07:28:39.680Z,71.40
2018-12-13T07:30:50.676Z,71.92
2018-12-13T07:33:01.586Z,71.77
2018-12-13T07:35:12.568Z,71.32
2018-12-13T07:37:23.493Z,71.51
2018-12-13T07:39:34.378Z,71.28
2018-12-13T07:41:45.313Z,71.79
2018-12-13T07:43:57.532Z,71.01
2018-12-13T07:46:11.359Z,71.64
2018-12-13T07:48:23.130Z,71.63
2018-12-13T07:50:35.259Z,71.33
2018-12-13T07:52:46.651Z,71.79
2018-12-13T07:54:57.755Z,72.21
2018-12-13T07:57:08.608Z,71.58
2018-12-13T07:59:19.462Z,72.09
2018-12-13T08:01:30.292Z,71.31
2018-12-13T08:03:41.132Z,71.83
2018-12-13T08:05:52.015Z,71.20
2018-12-13T08:08:02.825Z,70.66
2018-12-13T08:10:13.680Z,70.80
2018-12-13T08:12:24.644Z,70.40
2018-12-13T08:14:35.536Z,69.83
2018-12-13T08:16:46.369Z,70.04
2018-12-13T08:18:57.221Z,70.60
2018-12-13T08:21:08.049Z,70.04
2018-12-13T08:23:18.924Z,70.50
2018-12-13T08:25:29.744Z,70.86
2018-12-13T08:27:40.625Z,70.67
2018-12-13T08:29:51.457Z,70.23
2018-12-13T08:32:02.273Z,71.12
2018-12-13T08:34:13.122Z,70.21
2018-12-13T08:36:24.012Z,69.68
2018-12-13T08:38:34.864Z,68.82
2018-12-13T08:40:45.673Z,68.77
2018-12-13T08:42:56.555Z,68.60
2018-12-13T08:45:07.538Z,68.61
2018-12-13T08:47:18.385Z,68.21
2018-12-13T08:49:29.237Z,68.82
2018-12-13T08:51:40.155Z,67.86
2018-12-13T08:53:51.008Z,66.96
2018-12-13T08:56:01.863Z,66.77
2018-12-13T08:58:12.713Z,65.57
2018-12-13T09:00:23.544Z,66.17
2018-12-13T09:02:34.374Z,66.78
2018-12-13T09:04:45.221Z,66.86
2018-12-13T09:06:57.053Z,66.93
2018-12-13T09:09:08.089Z,67.47
2018-12-13T09:11:18.940Z,68.25
2018-12-13T09:13:29.757Z,67.75
2018-12-13T09:15:40.723Z,66.88
2018-12-13T09:17:51.548Z,67.22
2018-12-13T09:20:04.022Z,67.90
2018-12-13T09:22:14.883Z,68.02
2018-12-13T09:24:25.729Z,67.99
2018-12-13T09:26:36.572Z,67.74
2018-12-13T09:28:47.403Z,68.21
2018-12-13T09:30:58.272Z,67.27
2018-12-13T09:33:09.111Z,68.01
2018-12-13T09:35:19.957Z,68.01
2018-12-13T09:37:30.778Z,67.82
2018-12-13T09:39:41.645Z,67.32
2018-12-13T09:41:52.508Z,67.95
2018-12-13T09:44:03.369Z,67.06
2018-12-13T09:46:14.355Z,68.28
2018-12-13T09:48:25.214Z,67.70
2018-12-13T09:50:36.084Z,68.50
2018-12-13T09:52:46.951Z,67.99
2018-12-13T09:54:57.772Z,68.06
2018-12-13T09:57:08.638Z,68.50
2018-12-13T09:59:19.501Z,67.02
2018-12-13T10:01:30.349Z,66.66
2018-12-13T10:03:41.196Z,67.59
2018-12-13T10:05:52.012Z,66.48
2018-12-13T10:08:02.844Z,66.44
2018-12-13T10:10:13.690Z,67.11
2018-12-13T10:12:24.524Z,66.59
2018-12-13T10:14:35.376Z,66.63
2018-12-13T10:16:46.217Z,66.60
2018-12-13T10:18:57.059Z,66.23
2018-12-13T10:21:07.997Z,66.93
2018-12-13T10:23:18.893Z,66.25
2018-12-13T10:25:29.721Z,66.27
2018-12-13T10:27:40.564Z,66.10
2018-12-13T10:29:51.409Z,65.42
2018-12-13T10:32:02.279Z,65.39
2018-12-13T10:34:13.121Z,65.34
2018-12-13T10:36:25.613Z,65.59
2018-12-13T10:38:36.689Z,65.83
2018-12-13T10:40:47.521Z,66.56
2018-12-13T10:42:58.350Z,65.63
2018-12-13T10:45:09.302Z,65.44
2018-12-13T10:47:20.341Z,65.99
2018-12-13T10:49:31.232Z,66.20
2018-12-13T10:51:42.040Z,65.65
2018-12-13T10:53:52.873Z,66.11
2018-12-13T10:56:03.760Z,65.86
2018-12-13T10:58:14.601Z,65.33
2018-12-13T11:00:31.677Z,66.52
2018-12-13T11:03:07.612Z,66.86
2018-12-13T11:05:18.444Z,66.54
2018-12-13T11:07:29.301Z,66.75
2018-12-13T11:09:40.141Z,67.46
2018-12-13T11:11:51.100Z,66.87
2018-12-13T11:14:01.944Z,67.41
2018-12-13T11:16:12.797Z,66.81
2018-12-13T11:18:23.611Z,66.30
2018-12-13T11:20:34.469Z,66.59
2018-12-13T11:22:45.348Z,66.60
2018-12-13T11:24:56.180Z,66.93
2018-12-13T11:27:19.325Z,67.10
2018-12-13T11:29:42.496Z,67.25
2018-12-13T11:31:53.380Z,66.78
2018-12-13T11:34:04.337Z,68.04
2018-12-13T11:36:15.177Z,68.24
2018-12-13T11:38:26.193Z,68.23
2018-12-13T11:40:37.137Z,67.78
2018-12-13T11:42:47.999Z,67.55
2018-12-13T11:44:58.836Z,68.61
2018-12-13T11:47:09.697Z,68.24
2018-12-13T11:49:20.549Z,68.92
2018-12-13T11:51:31.380Z,68.34
2018-12-13T11:53:42.233Z,68.93
2018-12-13T11:55:53.071Z,69.08
2018-12-13T11:58:04.020Z,69.56
2018-12-13T12:00:14.885Z,69.90
2018-12-13T12:02:25.745Z,70.53
2018-12-13T12:04:36.592Z,70.19
2018-12-13T12:06:47.439Z,70.69
2018-12-13T12:08:58.305Z,70.08
2018-12-13T12:11:09.139Z,69.96
2018-12-13T12:13:19.993Z,70.82
2018-12-13T12:15:30.822Z,70.30
2018-12-13T12:17:41.653Z,69.77
2018-12-13T12:19:52.511Z,70.44
2018-12-13T12:22:04.254Z,69.65
2018-12-13T12:24:15.140Z,68.83
2018-12-13T12:26:26.007Z,69.54
2018-12-13T12:28:36.864Z,68.89
2018-12-13T12:30:47.713Z,68.66
2018-12-13T12:32:58.537Z,68.84
2018-12-13T12:35:09.412Z,67.85
2018-12-13T12:37:20.219Z,68.27
2018-12-13T12:39:31.079Z,68.23
2018-12-13T12:41:41.925Z,67.69
2018-12-13T12:43:52.775Z,67.59
2018-12-13T12:46:03.652Z,67.33
2018-12-13T12:48:14.496Z,68.02
2018-12-13T12:50:25.346Z,67.80
2018-12-13T12:52:36.182Z,67.09
2018-12-13T12:54:47.018Z,66.77
2018-12-13T12:56:57.886Z,67.53
2018-12-13T12:59:08.708Z,67.32
2018-12-13T13:01:19.564Z,67.15
2018-12-13T13:03:30.410Z,67.58
2018-12-13T13:05:41.331Z,68.29
2018-12-13T13:07:52.177Z,67.67
2018-12-13T13:10:03.849Z,67.97
2018-12-13T13:12:14.741Z,68.37
2018-12-13T13:14:25.569Z,67.68
2018-12-13T13:16:36.423Z,68.47
2018-12-13T13:18:47.285Z,68.46
2018-12-13T13:20:58.154Z,67.59
2018-12-13T13:23:08.995Z,68.52
2018-12-13T13:25:19.808Z,68.43
2018-12-13T13:27:30.680Z,68.24
2018-12-13T13:29:41.632Z,67.67
2018-12-13T13:31:52.480Z,66.71
2018-12-13T13:34:03.348Z,67.89
2018-12-13T13:36:14.185Z,66.98
2018-12-13T13:38:25.057Z,68.16
2018-12-13T13:40:35.920Z,68.01
2018-12-13T13:42:46.783Z,68.35
2018-12-13T13:44:59.234Z,67.75
2018-12-13T13:47:10.102Z,67.40
2018-12-13T13:49:20.972Z,68.56
2018-12-13T13:51:31.825Z,68.21
2018-12-13T13:53:42.774Z,68.20
2018-12-13T13:55:53.688Z,67.80
2018-12-13T13:58:04.669Z,68.22
2018-12-13T14:00:15.749Z,69.16
2018-12-13T14:02:26.601Z,67.63
2018-12-13T14:04:37.493Z,67.67
2018-12-13T14:06:48.328Z,67.33
2018-12-13T14:08:59.176Z,67.79
2018-12-13T14:11:10.018Z,67.59
2018-12-13T14:13:20.964Z,68.14
2018-12-13T14:15:31.909Z,68.06
2018-12-13T14:17:42.744Z,68.58
2018-12-13T14:19:53.606Z,68.37
2018-12-13T14:22:04.578Z,68.75
2018-12-13T14:24:15.443Z,69.80
2018-12-13T14:26:26.284Z,68.13
2018-12-13T14:28:37.112Z,68.12
2018-12-13T14:30:48.027Z,67.72
2018-12-13T14:32:58.888Z,67.76
2018-12-13T14:35:09.772Z,67.83
2018-12-13T14:37:20.616Z,68.64
2018-12-13T14:39:31.463Z,68.21
2018-12-13T14:41:42.314Z,68.35
2018-12-13T14:43:53.152Z,68.27
2018-12-13T14:46:04.007Z,67.99
2018-12-13T14:48:14.854Z,68.36
2018-12-13T14:50:25.825Z,67.73
2018-12-13T14:52:36.692Z,68.25
2018-12-13T14:54:47.522Z,67.58
2018-12-13T14:56:58.481Z,68.17
2018-12-13T14:59:09.341Z,67.83
2018-12-13T15:01:20.217Z,73.99
2018-12-13T15:03:31.065Z,67.66
2018-12-13T15:05:41.896Z,66.38
2018-12-13T15:07:52.766Z,67.21
2018-12-13T15:10:03.743Z,66.69
2018-12-13T15:12:14.637Z,66.64
2018-12-13T15:14:25.501Z,67.26
2018-12-13T15:16:36.351Z,67.02
2018-12-13T15:18:47.213Z,67.33
2018-12-13T15:20:58.064Z,67.42
2018-12-13T15:23:08.965Z,67.66
2018-12-13T15:25:19.831Z,66.37
2018-12-13T15:27:30.721Z,66.30
2018-12-13T15:29:41.562Z,66.51
2018-12-13T15:31:59.147Z,67.80
2018-12-13T15:34:05.327Z,66.95
2018-12-13T15:36:16.297Z,67.05
2018-12-13T15:38:27.166Z,66.65
2018-12-13T15:40:38.004Z,66.53
2018-12-13T15:42:48.955Z,67.70
2018-12-13T15:44:59.799Z,67.08
2018-12-13T15:47:10.630Z,66.27
2018-12-13T15:49:22.325Z,66.44
2018-12-13T15:51:33.188Z,66.44
2018-12-13T15:53:44.085Z,66.61
2018-12-13T15:55:55.091Z,66.81
2018-12-13T15:58:06.704Z,67.39
2018-12-13T16:00:17.689Z,66.81
2018-12-13T16:02:28.522Z,66.75
2018-12-13T16:04:39.379Z,66.74
2018-12-13T16:06:50.251Z,80.39
2018-12-13T16:09:01.122Z,69.13
2018-12-13T16:11:11.953Z,64.66
2018-12-13T16:13:22.797Z,65.04
2018-12-13T16:15:33.699Z,64.42
2018-12-13T16:17:44.554Z,64.79
2018-12-13T16:19:55.398Z,65.37
2018-12-13T16:22:06.276Z,65.63
2018-12-13T16:24:17.165Z,65.83
2018-12-13T16:26:28.034Z,66.03
2018-12-13T16:28:38.874Z,65.93
2018-12-13T16:30:49.754Z,65.92
2018-12-13T16:33:00.600Z,66.20
2018-12-13T16:35:11.469Z,66.48
2018-12-13T16:37:22.337Z,67.11
2018-12-13T16:39:33.210Z,66.55
2018-12-13T16:41:44.072Z,66.93
2018-12-13T16:43:55.696Z,66.00
2018-12-13T16:46:06.579Z,66.32
2018-12-13T16:48:17.458Z,67.27
2018-12-13T16:50:28.295Z,66.28
2018-12-13T16:52:39.252Z,65.82
2018-12-13T16:54:50.092Z,66.92
2018-12-13T16:57:00.955Z,66.42
2018-12-13T16:59:11.811Z,67.17
2018-12-13T17:01:22.674Z,66.35
2018-12-13T17:03:42.615Z,66.17
2018-12-13T17:05:53.497Z,66.99
2018-12-13T17:08:04.371Z,66.46
2018-12-13T17:10:16.852Z,66.58
2018-12-13T17:12:28.098Z,66.29
2018-12-13T17:14:38.963Z,66.77
2018-12-13T17:16:49.802Z,67.28
2018-12-13T17:19:00.676Z,66.82
2018-12-13T17:21:11.554Z,67.18
2018-12-13T17:23:22.424Z,66.40
2018-12-13T17:25:33.306Z,66.42
2018-12-13T17:27:44.107Z,66.54
2018-12-13T17:29:54.997Z,67.29
2018-12-13T17:32:05.817Z,67.51
2018-12-13T17:34:16.642Z,66.93
2018-12-13T17:36:27.526Z,66.79
2018-12-13T17:38:38.428Z,66.11
2018-12-13T17:40:49.295Z,66.48
2018-12-13T17:43:00.236Z,66.91
2018-12-13T17:45:11.096Z,66.33
2018-12-13T17:47:22.949Z,66.48
2018-12-13T17:49:33.772Z,66.22
2018-12-13T17:51:44.637Z,65.85
2018-12-13T17:53:55.509Z,66.12
2018-12-13T17:56:06.373Z,65.85
2018-12-13T17:58:17.255Z,66.12
2018-12-13T18:00:28.105Z,66.72
2018-12-13T18:02:39.100Z,66.75
2018-12-13T18:04:49.966Z,66.45
2018-12-13T18:07:00.897Z,66.71
2018-12-13T18:09:11.775Z,66.64
2018-12-13T18:11:22.631Z,66.15
2018-12-13T18:13:33.477Z,66.55
2018-12-13T18:15:44.338Z,66.44
2018-12-13T18:17:55.228Z,66.24
2018-12-13T18:20:06.222Z,65.36
2018-12-13T18:22:17.111Z,65.50
2018-12-13T18:24:27.978Z,66.32
2018-12-13T18:26:38.855Z,66.42
2018-12-13T18:28:49.693Z,66.06
2018-12-13T18:31:00.581Z,66.04
2018-12-13T18:33:11.533Z,66.23
2018-12-13T18:35:22.371Z,65.73
2018-12-13T18:37:33.258Z,65.69
2018-12-13T18:39:44.142Z,66.32
2018-12-13T18:41:55.057Z,66.74
2018-12-13T18:44:05.989Z,66.27
2018-12-13T18:46:16.997Z,66.14
2018-12-13T18:48:27.986Z,66.59
2018-12-13T18:50:39.054Z,65.32
2018-12-13T18:52:49.913Z,65.89
2018-12-13T18:55:00.804Z,65.79
2018-12-13T18:57:11.648Z,66.36
2018-12-13T18:59:22.577Z,65.96
2018-12-13T19:01:33.459Z,66.45
2018-12-13T19:03:44.339Z,65.70
2018-12-13T19:05:55.233Z,65.61
2018-12-13T19:08:06.068Z,65.47
2018-12-13T19:10:16.965Z,65.54
2018-12-13T19:12:27.854Z,65.94
2018-12-13T19:14:38.715Z,65.67
2018-12-13T19:16:49.574Z,65.59
2018-12-13T19:19:00.517Z,65.55
2018-12-13T19:21:11.504Z,66.48
2018-12-13T19:23:22.365Z,65.24
2018-12-13T19:25:33.247Z,66.12
2018-12-13T19:27:44.145Z,65.77
2018-12-13T19:29:55.016Z,66.62
2018-12-13T19:32:05.907Z,65.27
2018-12-13T19:34:16.798Z,66.39
2018-12-13T19:36:27.683Z,65.68
2018-12-13T19:38:38.512Z,66.43
2018-12-13T19:40:49.391Z,66.15
2018-12-13T19:43:00.254Z,65.69
2018-12-13T19:45:11.113Z,66.25
2018-12-13T19:47:22.041Z,65.80
2018-12-13T19:49:32.892Z,64.88
2018-12-13T19:51:43.794Z,65.13
2018-12-13T19:53:54.657Z,65.81
2018-12-13T19:56:05.588Z,65.60
2018-12-13T19:58:16.440Z,64.92
2018-12-13T20:00:27.282Z,64.52
2018-12-13T20:02:38.192Z,64.90
2018-12-13T20:04:49.065Z,65.66
2018-12-13T20:06:59.925Z,65.04
2018-12-13T20:09:10.792Z,64.65
2018-12-13T20:11:21.637Z,65.40
2018-12-13T20:13:32.582Z,64.90
2018-12-13T20:15:43.441Z,64.50
2018-12-13T20:17:54.393Z,64.79
2018-12-13T20:20:05.400Z,64.55
2018-12-13T20:22:16.416Z,64.90
2018-12-13T20:24:27.301Z,64.43
2018-12-13T20:26:38.155Z,64.69
2018-12-13T20:28:49.064Z,64.62
2018-12-13T20:30:59.916Z,64.30
2018-12-13T20:33:10.779Z,64.72
2018-12-13T20:35:22.249Z,64.64
2018-12-13T20:37:33.087Z,64.53
2018-12-13T20:39:43.957Z,64.19
2018-12-13T20:41:54.826Z,65.19
2018-12-13T20:44:05.713Z,64.96
2018-12-13T20:46:16.606Z,64.75
2018-12-13T20:48:27.475Z,65.05
2018-12-13T20:50:38.362Z,64.66
2018-12-13T20:52:49.208Z,65.39
2018-12-13T20:55:00.059Z,65.00
2018-12-13T20:57:10.956Z,64.95
2018-12-13T20:59:21.856Z,65.23
2018-12-13T21:01:32.760Z,65.00
2018-12-13T21:03:43.676Z,65.50
2018-12-13T21:05:54.579Z,66.02
2018-12-13T21:08:08.915Z,65.29
2018-12-13T21:10:19.789Z,65.27
2018-12-13T21:12:30.657Z,64.99
2018-12-13T21:14:41.501Z,65.32
2018-12-13T21:16:52.410Z,65.79
2018-12-13T21:19:03.386Z,65.68
2018-12-13T21:21:14.261Z,65.04
2018-12-13T21:23:25.132Z,65.23
2018-12-13T21:25:36.012Z,64.84
2018-12-13T21:27:46.892Z,65.59
2018-12-13T21:29:57.761Z,65.40
2018-12-13T21:32:08.644Z,65.63
2018-12-13T21:34:19.484Z,65.50
2018-12-13T21:36:30.352Z,66.18
2018-12-13T21:38:41.228Z,66.50
2018-12-13T21:40:52.086Z,65.76
2018-12-13T21:43:03.079Z,66.09
2018-12-13T21:45:13.931Z,65.42
2018-12-13T21:47:24.765Z,66.06
2018-12-13T21:49:35.699Z,66.65
2018-12-13T21:51:46.691Z,66.14
2018-12-13T21:53:57.568Z,65.85
2018-12-13T21:56:08.421Z,65.53
2018-12-13T21:58:19.293Z,65.54
2018-12-13T22:00:30.221Z,65.80
2018-12-13T22:02:41.106Z,66.80
2018-12-13T22:04:51.961Z,65.58
2018-12-13T22:07:02.829Z,65.82
2018-12-13T22:09:13.688Z,65.75
2018-12-13T22:11:24.568Z,65.83
2018-12-13T22:13:35.446Z,66.74
2018-12-13T22:15:46.333Z,66.41
2018-12-13T22:17:57.189Z,65.67
2018-12-13T22:20:08.016Z,66.02
2018-12-13T22:22:18.900Z,66.13
2018-12-13T22:24:29.865Z,66.96
2018-12-13T22:26:40.771Z,67.11
2018-12-13T22:28:51.654Z,66.42
2018-12-13T22:31:02.478Z,67.46
2018-12-13T22:33:13.306Z,66.40
2018-12-13T22:35:24.156Z,66.20
2018-12-13T22:37:35.007Z,66.47
2018-12-13T22:39:45.889Z,66.38
2018-12-13T22:41:56.720Z,65.96
2018-12-13T22:44:07.597Z,66.83
2018-12-13T22:46:18.449Z,66.50
2018-12-13T22:48:30.332Z,65.87
2018-12-13T22:50:41.186Z,66.80
2018-12-13T22:52:52.037Z,67.04
2018-12-13T22:55:03.636Z,66.59
2018-12-13T22:57:14.478Z,67.08
2018-12-13T22:59:25.297Z,66.67
2018-12-13T23:01:36.161Z,66.99
2018-12-13T23:03:47.005Z,65.58
2018-12-13T23:05:57.926Z,65.59
2018-12-13T23:08:08.757Z,65.85
2018-12-13T23:10:19.632Z,66.52
2018-12-13T23:12:30.454Z,66.17
2018-12-13T23:14:41.521Z,64.77
2018-12-13T23:16:52.480Z,65.11
2018-12-13T23:19:03.301Z,64.60
2018-12-13T23:21:14.168Z,65.40
2018-12-13T23:23:25.110Z,64.29
2018-12-13T23:25:36.754Z,64.46
2018-12-13T23:27:47.727Z,65.07
2018-12-13T23:29:58.569Z,64.82
2018-12-13T23:32:09.430Z,65.64
2018-12-13T23:34:20.268Z,66.02
2018-12-13T23:36:31.124Z,66.24
2018-12-13T23:38:42.075Z,66.32
2018-12-13T23:40:52.896Z,65.69
2018-12-13T23:43:03.763Z,65.72
2018-12-13T23:45:14.597Z,64.93
2018-12-13T23:47:25.485Z,65.04
2018-12-13T23:49:36.442Z,64.12
2018-12-13T23:51:47.265Z,64.40
2018-12-13T23:53:58.096Z,63.63
2018-12-13T23:56:08.955Z,64.26
2018-12-13T23:58:19.918Z,64.26
